createdAt,value
2019-03-18T00:00:03.504Z,1015.3
2019-03-18T00:01:03.676Z,1015.2
2019-03-18T00:02:03.269Z,1015.3
2019-03-18T00:03:03.747Z,1015.2
2019-03-18T00:04:04.009Z,1015.2
2019-03-18T00:05:03.558Z,1015.2
2019-03-18T00:06:03.474Z,1015.2
2019-03-18T00:07:03.259Z,1015.3
2019-03-18T00:08:03.516Z,1015.2
2019-03-18T00:09:03.650Z,1015.3
2019-03-18T00:10:03.698Z,1015.2
2019-03-18T00:11:03.100Z,1015.3
2019-03-18T00:12:03.453Z,1015.4
2019-03-18T00:13:03.629Z,1015.3
2019-03-18T00:14:03.288Z,1015.3
2019-03-18T00:15:03.463Z,1015.4
2019-03-18T00:16:03.346Z,1015.4
2019-03-18T00:17:03.222Z,1015.4
2019-03-18T00:18:03.091Z,1015.4
2019-03-18T00:19:02.917Z,1015.5
2019-03-18T00:20:04.165Z,1015.4
2019-03-18T00:21:03.204Z,1015.3
2019-03-18T00:22:02.992Z,1015.3
2019-03-18T00:23:04.000Z,1015.4
2019-03-18T00:24:03.821Z,1015.3
2019-03-18T00:25:03.977Z,1015.3
2019-03-18T00:26:03.541Z,1015.3
2019-03-18T00:27:03.092Z,1015.2
2019-03-18T00:28:03.137Z,1015.2
2019-03-18T00:29:03.733Z,1015.2
2019-03-18T00:30:03.808Z,1015.3
2019-03-18T00:31:03.543Z,1015.4
2019-03-18T00:32:03.885Z,1015.2
2019-03-18T00:33:03.724Z,1015.3
2019-03-18T00:34:03.854Z,1015.3
2019-03-18T00:35:03.628Z,1015.2
2019-03-18T00:36:03.639Z,1015.3
2019-03-18T00:37:03.319Z,1015.2
2019-03-18T00:38:03.593Z,1015.2
2019-03-18T00:39:03.436Z,1015.3
2019-03-18T00:40:03.312Z,1015.3
2019-03-18T00:41:03.334Z,1015.3
2019-03-18T00:42:03.432Z,1015.2
2019-03-18T00:43:03.235Z,1015.2
2019-03-18T00:44:03.223Z,1015.3
2019-03-18T00:45:16.205Z,1015.3
2019-03-18T00:46:02.971Z,1015.4
2019-03-18T00:47:03.328Z,1015.4
2019-03-18T00:48:03.121Z,1015.4
2019-03-18T00:49:03.096Z,1015.4
2019-03-18T00:50:04.060Z,1015.4
2019-03-18T00:51:03.607Z,1015.4
2019-03-18T00:52:03.208Z,1015.4
2019-03-18T00:53:03.824Z,1015.4
2019-03-18T00:54:03.081Z,1015.5
2019-03-18T00:55:03.764Z,1015.4
2019-03-18T00:56:02.928Z,1015.4
2019-03-18T00:57:04.110Z,1015.5
2019-03-18T00:58:03.699Z,1015.4
2019-03-18T00:59:03.543Z,1015.4
2019-03-18T01:00:03.781Z,1015.4
2019-03-18T01:01:03.956Z,1015.5
2019-03-18T01:02:03.478Z,1015.4
2019-03-18T01:03:03.940Z,1015.4
2019-03-18T01:04:03.576Z,1015.5
2019-03-18T01:05:03.707Z,1015.4
2019-03-18T01:06:03.449Z,1015.4
2019-03-18T01:07:03.258Z,1015.4
2019-03-18T01:08:03.301Z,1015.5
2019-03-18T01:09:03.381Z,1015.6
2019-03-18T01:10:03.034Z,1015.5
2019-03-18T01:11:03.242Z,1015.5
2019-03-18T01:12:03.220Z,1015.5
2019-03-18T01:13:03.152Z,1015.5
2019-03-18T01:14:03.111Z,1015.5
2019-03-18T01:15:04.133Z,1015.5
2019-03-18T01:16:03.114Z,1015.4
2019-03-18T01:17:03.906Z,1015.5
2019-03-18T01:18:04.046Z,1015.5
2019-03-18T01:19:03.826Z,1015.4
2019-03-18T01:20:02.999Z,1015.4
2019-03-18T01:21:03.177Z,1015.6
2019-03-18T01:22:03.247Z,1015.5
2019-03-18T01:23:03.909Z,1015.5
2019-03-18T01:24:03.906Z,1015.5
2019-03-18T01:25:03.819Z,1015.5
2019-03-18T01:26:03.600Z,1015.6
2019-03-18T01:27:03.822Z,1015.6
2019-03-18T01:28:03.550Z,1015.7
2019-03-18T01:29:03.858Z,1015.7
2019-03-18T01:30:03.664Z,1015.9
2019-03-18T01:31:03.599Z,1015.7
2019-03-18T01:32:03.449Z,1015.7
2019-03-18T01:33:03.565Z,1015.7
2019-03-18T01:34:03.496Z,1015.6
2019-03-18T01:35:03.210Z,1015.7
2019-03-18T01:36:03.413Z,1015.7
2019-03-18T01:37:03.374Z,1015.7
2019-03-18T01:38:03.157Z,1015.6
2019-03-18T01:39:03.220Z,1015.6
2019-03-18T01:40:03.450Z,1015.6
2019-03-18T01:41:03.167Z,1015.6
2019-03-18T01:42:03.072Z,1015.6
2019-03-18T01:43:03.153Z,1015.7
2019-03-18T01:44:02.734Z,1015.7
2019-03-18T01:45:04.720Z,1015.9
2019-03-18T01:46:04.103Z,1015.9
2019-03-18T01:47:03.680Z,1015.9
2019-03-18T01:48:03.942Z,1015.9
2019-03-18T01:49:03.898Z,1015.9
2019-03-18T01:50:03.707Z,1015.9
2019-03-18T01:51:03.914Z,1015.9
2019-03-18T01:52:03.569Z,1016
2019-03-18T01:53:03.885Z,1016
2019-03-18T01:54:03.564Z,1016.1
2019-03-18T01:55:03.801Z,1016.1
2019-03-18T01:56:03.658Z,1016
2019-03-18T01:57:03.691Z,1016.1
2019-03-18T01:58:03.254Z,1016.1
2019-03-18T01:59:03.547Z,1016
2019-03-18T02:00:03.626Z,1016
2019-03-18T02:01:03.578Z,1016
2019-03-18T02:02:03.608Z,1016.1
2019-03-18T02:03:02.826Z,1016
2019-03-18T02:04:03.347Z,1016
2019-03-18T02:05:03.316Z,1016
2019-03-18T02:06:03.049Z,1016
2019-03-18T02:07:03.137Z,1016
2019-03-18T02:08:03.134Z,1015.9
2019-03-18T02:09:03.222Z,1015.9
2019-03-18T02:10:02.923Z,1015.9
2019-03-18T02:11:02.836Z,1016
2019-03-18T02:12:03.007Z,1016
2019-03-18T02:13:03.831Z,1016
2019-03-18T02:14:03.088Z,1016
2019-03-18T02:15:03.853Z,1016
2019-03-18T02:16:03.550Z,1016
2019-03-18T02:17:03.886Z,1016
2019-03-18T02:18:03.727Z,1016
2019-03-18T02:19:03.693Z,1016
2019-03-18T02:20:03.589Z,1016
2019-03-18T02:21:03.559Z,1016.1
2019-03-18T02:22:03.503Z,1016
2019-03-18T02:23:03.045Z,1015.9
2019-03-18T02:24:03.650Z,1015.9
2019-03-18T02:25:03.442Z,1015.8
2019-03-18T02:26:03.494Z,1015.9
2019-03-18T02:27:03.112Z,1015.9
2019-03-18T02:28:03.308Z,1015.9
2019-03-18T02:29:03.155Z,1016
2019-03-18T02:30:03.410Z,1016
2019-03-18T02:31:03.173Z,1015.9
2019-03-18T02:32:03.337Z,1016
2019-03-18T02:33:03.311Z,1015.9
2019-03-18T02:34:03.751Z,1016
2019-03-18T02:35:03.305Z,1015.9
2019-03-18T02:36:03.033Z,1016
2019-03-18T02:37:03.197Z,1016
2019-03-18T02:38:03.086Z,1015.9
2019-03-18T02:39:03.122Z,1016
2019-03-18T02:40:04.024Z,1016
2019-03-18T02:41:03.873Z,1016
2019-03-18T02:42:03.883Z,1016
2019-03-18T02:43:03.873Z,1016
2019-03-18T02:44:03.759Z,1016
2019-03-18T02:45:03.880Z,1016
2019-03-18T02:46:11.505Z,1016
2019-03-18T02:47:03.565Z,1016.1
2019-03-18T02:48:03.647Z,1016.1
2019-03-18T02:49:03.425Z,1016.1
2019-03-18T02:50:03.683Z,1016.1
2019-03-18T02:51:03.460Z,1015.9
2019-03-18T02:52:03.499Z,1016.1
2019-03-18T02:53:03.169Z,1016
2019-03-18T02:54:03.356Z,1016
2019-03-18T02:55:03.318Z,1016.1
2019-03-18T02:56:03.300Z,1016
2019-03-18T02:57:03.503Z,1016
2019-03-18T02:58:03.091Z,1016.1
2019-03-18T02:59:03.440Z,1016
2019-03-18T03:00:04.124Z,1016.1
2019-03-18T03:01:03.876Z,1016.3
2019-03-18T03:02:04.054Z,1016.3
2019-03-18T03:03:03.377Z,1016.4
2019-03-18T03:04:03.931Z,1016.3
2019-03-18T03:05:04.090Z,1016.4
2019-03-18T03:06:03.846Z,1016.4
2019-03-18T03:07:03.816Z,1016.4
2019-03-18T03:08:03.938Z,1016.4
2019-03-18T03:09:03.743Z,1016.4
2019-03-18T03:10:04.026Z,1016.5
2019-03-18T03:11:03.549Z,1016.5
2019-03-18T03:12:03.824Z,1016.4
2019-03-18T03:13:03.400Z,1016.4
2019-03-18T03:14:03.957Z,1016.4
2019-03-18T03:15:03.625Z,1016.4
2019-03-18T03:16:03.736Z,1016.5
2019-03-18T03:17:03.501Z,1016.4
2019-03-18T03:18:03.516Z,1016.5
2019-03-18T03:19:03.345Z,1016.4
2019-03-18T03:20:02.915Z,1016.4
2019-03-18T03:21:03.279Z,1016.4
2019-03-18T03:22:03.022Z,1016.5
2019-03-18T03:23:03.201Z,1016.4
2019-03-18T03:24:03.166Z,1016.5
2019-03-18T03:25:03.165Z,1016.4
2019-03-18T03:26:04.048Z,1016.4
2019-03-18T03:27:03.194Z,1016.4
2019-03-18T03:28:03.846Z,1016.5
2019-03-18T03:29:02.966Z,1016.6
2019-03-18T03:30:04.167Z,1016.5
2019-03-18T03:31:04.304Z,1016.5
2019-03-18T03:32:03.982Z,1016.6
2019-03-18T03:33:03.711Z,1016.6
2019-03-18T03:34:03.930Z,1016.5
2019-03-18T03:35:03.737Z,1016.6
2019-03-18T03:36:03.625Z,1016.6
2019-03-18T03:37:03.398Z,1016.5
2019-03-18T03:38:03.765Z,1016.6
2019-03-18T03:39:02.430Z,1016.6
2019-03-18T03:40:03.931Z,1016.6
2019-03-18T03:41:03.520Z,1016.6
2019-03-18T03:42:03.381Z,1016.6
2019-03-18T03:43:03.540Z,1016.6
2019-03-18T03:44:03.713Z,1016.5
2019-03-18T03:45:03.565Z,1016.6
2019-03-18T03:46:03.862Z,1016.6
2019-03-18T03:47:03.643Z,1016.7
2019-03-18T03:48:03.454Z,1016.6
2019-03-18T03:49:03.135Z,1016.5
2019-03-18T03:50:03.415Z,1016.6
2019-03-18T03:51:03.149Z,1016.5
2019-03-18T03:52:03.384Z,1016.5
2019-03-18T03:53:03.249Z,1016.4
2019-03-18T03:54:03.243Z,1016.4
2019-03-18T03:55:04.013Z,1016.4
2019-03-18T03:56:03.017Z,1016.4
2019-03-18T03:57:03.322Z,1016.4
2019-03-18T03:58:03.501Z,1016.5
2019-03-18T03:59:03.067Z,1016.5
2019-03-18T04:00:02.879Z,1016.6
2019-03-18T04:01:03.117Z,1016.5
2019-03-18T04:02:04.132Z,1016.5
2019-03-18T04:03:03.769Z,1016.4
2019-03-18T04:04:03.805Z,1016.5
2019-03-18T04:05:03.894Z,1016.5
2019-03-18T04:06:04.039Z,1016.4
2019-03-18T04:07:03.684Z,1016.6
2019-03-18T04:08:03.910Z,1016.4
2019-03-18T04:09:03.926Z,1016.6
2019-03-18T04:10:03.839Z,1016.4
2019-03-18T04:11:08.378Z,1016.5
2019-03-18T04:12:03.775Z,1016.5
2019-03-18T04:13:03.604Z,1016.7
2019-03-18T04:14:03.634Z,1016.7
2019-03-18T04:15:03.505Z,1016.9
2019-03-18T04:16:03.855Z,1016.8
2019-03-18T04:17:03.652Z,1016.8
2019-03-18T04:18:03.525Z,1016.7
2019-03-18T04:19:03.436Z,1016.7
2019-03-18T04:20:03.267Z,1016.7
2019-03-18T04:21:03.335Z,1016.8
2019-03-18T04:22:02.978Z,1016.7
2019-03-18T04:23:03.390Z,1016.8
2019-03-18T04:24:03.200Z,1016.7
2019-03-18T04:25:03.577Z,1016.7
2019-03-18T04:26:03.171Z,1016.8
2019-03-18T04:27:03.185Z,1016.8
2019-03-18T04:28:03.188Z,1016.8
2019-03-18T04:29:03.112Z,1016.7
2019-03-18T04:30:03.888Z,1016.7
2019-03-18T04:31:03.807Z,1016.6
2019-03-18T04:32:02.639Z,1016.7
2019-03-18T04:33:03.724Z,1016.7
2019-03-18T04:34:03.373Z,1016.7
2019-03-18T04:35:03.623Z,1016.7
2019-03-18T04:36:03.943Z,1016.8
2019-03-18T04:37:03.687Z,1016.8
2019-03-18T04:38:03.642Z,1016.8
2019-03-18T04:39:03.742Z,1016.8
2019-03-18T04:40:03.819Z,1016.9
2019-03-18T04:41:02.970Z,1016.9
2019-03-18T04:42:03.368Z,1016.9
2019-03-18T04:43:03.573Z,1016.9
2019-03-18T04:44:03.559Z,1016.9
2019-03-18T04:45:03.442Z,1016.9
2019-03-18T04:46:03.286Z,1016.9
2019-03-18T04:47:15.060Z,1017
2019-03-18T04:48:03.057Z,1016.9
2019-03-18T04:49:03.281Z,1016.9
2019-03-18T04:50:03.206Z,1016.9
2019-03-18T04:51:02.844Z,1017
2019-03-18T04:52:03.250Z,1017
2019-03-18T04:53:03.025Z,1017.1
2019-03-18T04:54:02.972Z,1017
2019-03-18T04:55:04.168Z,1016.9
2019-03-18T04:56:03.089Z,1016.9
2019-03-18T04:57:03.891Z,1016.9
2019-03-18T04:58:03.882Z,1016.9
2019-03-18T04:59:03.733Z,1017
2019-03-18T05:00:03.840Z,1016.9
2019-03-18T05:01:03.327Z,1016.9
2019-03-18T05:02:03.374Z,1016.9
2019-03-18T05:03:03.615Z,1017
2019-03-18T05:04:03.741Z,1017
2019-03-18T05:05:03.341Z,1016.9
2019-03-18T05:06:03.257Z,1016.9
2019-03-18T05:07:03.206Z,1016.9
2019-03-18T05:08:03.662Z,1016.9
2019-03-18T05:09:03.574Z,1016.8
2019-03-18T05:10:03.165Z,1016.9
2019-03-18T05:11:03.359Z,1016.9
2019-03-18T05:12:03.407Z,1016.9
2019-03-18T05:13:03.043Z,1016.8
2019-03-18T05:14:03.223Z,1016.8
2019-03-18T05:15:03.269Z,1016.9
2019-03-18T05:16:03.083Z,1016.9
2019-03-18T05:17:03.196Z,1017
2019-03-18T05:18:03.169Z,1017
2019-03-18T05:19:03.234Z,1017.1
2019-03-18T05:20:03.409Z,1017
2019-03-18T05:21:03.382Z,1017
2019-03-18T05:22:03.043Z,1017
2019-03-18T05:23:03.485Z,1017
2019-03-18T05:24:03.401Z,1017
2019-03-18T05:25:03.465Z,1017
2019-03-18T05:26:03.289Z,1017
2019-03-18T05:27:03.319Z,1017
2019-03-18T05:28:02.918Z,1017
2019-03-18T05:29:03.873Z,1017
2019-03-18T05:30:03.104Z,1017.1
2019-03-18T05:31:03.187Z,1017
2019-03-18T05:32:05.502Z,1017
2019-03-18T05:33:02.959Z,1017.1
2019-03-18T05:34:03.892Z,1017.2
2019-03-18T05:35:04.023Z,1017.2
2019-03-18T05:36:03.772Z,1017.2
2019-03-18T05:37:03.886Z,1017.2
2019-03-18T05:38:03.864Z,1017.4
2019-03-18T05:39:03.539Z,1017.4
2019-03-18T05:40:03.566Z,1017.2
2019-03-18T05:41:03.694Z,1017.2
2019-03-18T05:42:03.477Z,1017.2
2019-03-18T05:43:03.625Z,1017.2
2019-03-18T05:44:03.395Z,1017.2
2019-03-18T05:45:03.697Z,1017.2
2019-03-18T05:46:03.042Z,1017
2019-03-18T05:47:03.408Z,1017
2019-03-18T05:48:03.378Z,1017
2019-03-18T05:49:02.879Z,1017
2019-03-18T05:50:03.246Z,1016.9
2019-03-18T05:51:02.990Z,1016.9
2019-03-18T05:52:03.319Z,1016.9
2019-03-18T05:53:02.975Z,1017
2019-03-18T05:54:03.486Z,1017
2019-03-18T05:55:03.862Z,1017
2019-03-18T05:56:03.931Z,1017
2019-03-18T05:57:03.060Z,1017.1
2019-03-18T05:58:02.887Z,1017.1
2019-03-18T05:59:04.064Z,1017
2019-03-18T06:00:03.525Z,1017.1
2019-03-18T06:01:03.948Z,1017.1
2019-03-18T06:02:03.978Z,1017.2
2019-03-18T06:03:03.419Z,1017.2
2019-03-18T06:04:03.976Z,1017.3
2019-03-18T06:05:03.558Z,1017.4
2019-03-18T06:06:04.004Z,1017.4
2019-03-18T06:07:03.761Z,1017.4
2019-03-18T06:08:03.291Z,1017.3
2019-03-18T06:09:03.909Z,1017.3
2019-03-18T06:10:02.412Z,1017.4
2019-03-18T06:11:03.617Z,1017.4
2019-03-18T06:12:03.747Z,1017.5
2019-03-18T06:13:03.580Z,1017.5
2019-03-18T06:14:03.492Z,1017.5
2019-03-18T06:15:03.337Z,1017.5
2019-03-18T06:16:03.569Z,1017.5
2019-03-18T06:17:03.813Z,1017.4
2019-03-18T06:18:03.514Z,1017.4
2019-03-18T06:19:03.616Z,1017.5
2019-03-18T06:20:03.294Z,1017.4
2019-03-18T06:21:03.299Z,1017.4
2019-03-18T06:22:03.359Z,1017.5
2019-03-18T06:23:03.134Z,1017.5
2019-03-18T06:24:06.830Z,1017.5
2019-03-18T06:25:03.294Z,1017.5
2019-03-18T06:26:03.081Z,1017.5
2019-03-18T06:27:03.128Z,1017.5
2019-03-18T06:28:03.393Z,1017.5
2019-03-18T06:29:03.127Z,1017.4
2019-03-18T06:30:03.618Z,1017.5
2019-03-18T06:31:02.952Z,1017.5
2019-03-18T06:32:03.033Z,1017.5
2019-03-18T06:33:03.006Z,1017.5
2019-03-18T06:34:03.810Z,1017.5
2019-03-18T06:35:03.785Z,1017.5
2019-03-18T06:36:03.038Z,1017.6
2019-03-18T06:37:02.920Z,1017.6
2019-03-18T06:38:03.783Z,1017.6
2019-03-18T06:39:03.882Z,1017.7
2019-03-18T06:40:04.049Z,1017.7
2019-03-18T06:41:03.610Z,1017.6
2019-03-18T06:42:03.776Z,1017.7
2019-03-18T06:43:03.829Z,1017.7
2019-03-18T06:44:03.339Z,1017.6
2019-03-18T06:45:03.764Z,1017.7
2019-03-18T06:46:03.200Z,1017.6
2019-03-18T06:47:03.684Z,1017.8
2019-03-18T06:48:07.959Z,1017.8
2019-03-18T06:49:03.398Z,1017.8
2019-03-18T06:50:03.573Z,1017.5
2019-03-18T06:51:03.406Z,1017.5
2019-03-18T06:52:03.723Z,1017.5
2019-03-18T06:53:03.644Z,1017.5
2019-03-18T06:54:03.410Z,1017.7
2019-03-18T06:55:03.366Z,1017.8
2019-03-18T06:56:03.397Z,1017.7
2019-03-18T06:57:03.383Z,1017.7
2019-03-18T06:58:03.246Z,1017.5
2019-03-18T06:59:03.268Z,1017.4
2019-03-18T07:00:03.556Z,1017.5
2019-03-18T07:01:03.018Z,1017.5
2019-03-18T07:02:03.258Z,1017.4
2019-03-18T07:03:03.159Z,1017.4
2019-03-18T07:04:02.944Z,1017.4
2019-03-18T07:05:03.341Z,1017.4
2019-03-18T07:06:03.120Z,1017.4
2019-03-18T07:07:03.125Z,1017.4
2019-03-18T07:08:02.992Z,1017.4
2019-03-18T07:09:04.093Z,1017.4
2019-03-18T07:10:03.080Z,1017.4
2019-03-18T07:11:03.931Z,1017.5
2019-03-18T07:12:03.078Z,1017.4
2019-03-18T07:13:04.056Z,1017.4
2019-03-18T07:14:03.879Z,1017.4
2019-03-18T07:15:03.904Z,1017.4
2019-03-18T07:16:03.593Z,1017.5
2019-03-18T07:17:03.798Z,1017.4
2019-03-18T07:18:19.071Z,1017.5
2019-03-18T07:19:03.531Z,1017.4
2019-03-18T07:20:03.675Z,1017.4
2019-03-18T07:21:03.603Z,1017.4
2019-03-18T07:22:03.243Z,1017.5
2019-03-18T07:23:03.736Z,1017.5
2019-03-18T07:24:03.038Z,1017.4
2019-03-18T07:25:03.609Z,1017.4
2019-03-18T07:26:03.021Z,1017.5
2019-03-18T07:27:03.407Z,1017.4
2019-03-18T07:28:03.209Z,1017.4
2019-03-18T07:29:03.534Z,1017.5
2019-03-18T07:30:03.480Z,1017.6
2019-03-18T07:31:03.266Z,1017.6
2019-03-18T07:32:03.156Z,1017.5
2019-03-18T07:33:02.995Z,1017.6
2019-03-18T07:34:03.271Z,1017.6
2019-03-18T07:35:03.323Z,1017.7
2019-03-18T07:36:03.249Z,1017.6
2019-03-18T07:37:03.137Z,1017.7
2019-03-18T07:38:03.301Z,1017.6
2019-03-18T07:39:03.145Z,1017.7
2019-03-18T07:40:03.005Z,1017.7
2019-03-18T07:41:03.241Z,1017.7
2019-03-18T07:42:02.771Z,1017.8
2019-03-18T07:43:03.865Z,1017.8
2019-03-18T07:44:03.898Z,1017.8
2019-03-18T07:45:03.945Z,1017.8
2019-03-18T07:46:03.764Z,1017.7
2019-03-18T07:47:03.945Z,1017.8
2019-03-18T07:48:06.855Z,1017.8
2019-03-18T07:49:03.890Z,1017.8
2019-03-18T07:50:03.496Z,1017.6
2019-03-18T07:51:04.068Z,1017.7
2019-03-18T07:52:03.451Z,1017.8
2019-03-18T07:53:03.551Z,1017.7
2019-03-18T07:54:03.236Z,1017.8
2019-03-18T07:55:03.720Z,1017.9
2019-03-18T07:56:03.748Z,1017.8
2019-03-18T07:57:03.266Z,1017.8
2019-03-18T07:58:03.387Z,1017.9
2019-03-18T07:59:03.561Z,1017.9
2019-03-18T08:00:03.383Z,1017.9
2019-03-18T08:01:04.224Z,1017.9
2019-03-18T08:02:03.277Z,1018
2019-03-18T08:03:04.008Z,1017.9
2019-03-18T08:04:02.791Z,1017.9
2019-03-18T08:05:03.192Z,1017.9
2019-03-18T08:06:03.553Z,1018
2019-03-18T08:07:03.295Z,1017.9
2019-03-18T08:08:03.101Z,1018
2019-03-18T08:09:03.199Z,1018
2019-03-18T08:10:03.343Z,1017.9
2019-03-18T08:11:03.130Z,1017.9
2019-03-18T08:12:03.223Z,1017.8
2019-03-18T08:13:03.012Z,1018
2019-03-18T08:14:03.784Z,1017.8
2019-03-18T08:15:03.208Z,1017.8
2019-03-18T08:16:03.862Z,1017.9
2019-03-18T08:17:04.014Z,1017.9
2019-03-18T08:18:04.049Z,1017.8
2019-03-18T08:19:03.898Z,1017.8
2019-03-18T08:20:04.116Z,1017.9
2019-03-18T08:21:03.808Z,1017.8
2019-03-18T08:22:03.806Z,1017.9
2019-03-18T08:23:03.897Z,1017.9
2019-03-18T08:24:03.776Z,1017.8
2019-03-18T08:25:03.533Z,1017.8
2019-03-18T08:26:03.793Z,1017.9
2019-03-18T08:27:03.628Z,1018
2019-03-18T08:28:03.738Z,1017.9
2019-03-18T08:29:03.547Z,1017.8
2019-03-18T08:30:03.628Z,1018
2019-03-18T08:31:03.442Z,1017.9
2019-03-18T08:32:03.557Z,1018
2019-03-18T08:33:03.498Z,1017.8
2019-03-18T08:34:03.332Z,1018
2019-03-18T08:35:03.057Z,1017.9
2019-03-18T08:36:03.352Z,1017.9
2019-03-18T08:37:03.419Z,1017.9
2019-03-18T08:38:03.026Z,1018
2019-03-18T08:39:03.600Z,1018
2019-03-18T08:40:03.100Z,1018
2019-03-18T08:41:02.822Z,1018
2019-03-18T08:42:03.167Z,1017.9
2019-03-18T08:43:03.510Z,1018
2019-03-18T08:44:02.968Z,1018
2019-03-18T08:45:03.163Z,1018
2019-03-18T08:46:04.114Z,1017.9
2019-03-18T08:47:03.692Z,1017.9
2019-03-18T08:48:03.887Z,1017.9
2019-03-18T08:49:03.641Z,1018
2019-03-18T08:50:04.153Z,1017.9
2019-03-18T08:51:03.914Z,1017.9
2019-03-18T08:52:03.622Z,1018
2019-03-18T08:53:03.363Z,1018
2019-03-18T08:54:03.792Z,1018
2019-03-18T08:55:03.406Z,1017.9
2019-03-18T08:56:03.658Z,1018
2019-03-18T08:57:03.509Z,1018.1
2019-03-18T08:58:03.174Z,1018.1
2019-03-18T08:59:03.122Z,1018.1
2019-03-18T09:00:03.271Z,1018.2
2019-03-18T09:01:03.764Z,1018.2
2019-03-18T09:02:03.279Z,1018.1
2019-03-18T09:03:03.412Z,1018.2
2019-03-18T09:04:03.162Z,1018.1
2019-03-18T09:05:03.388Z,1018.2
2019-03-18T09:06:03.132Z,1018.2
2019-03-18T09:07:03.122Z,1018.2
2019-03-18T09:08:03.031Z,1018.1
2019-03-18T09:09:02.965Z,1018.2
2019-03-18T09:10:03.244Z,1018.2
2019-03-18T09:11:03.077Z,1018.1
2019-03-18T09:12:03.071Z,1018.1
2019-03-18T09:13:03.937Z,1018.1
2019-03-18T09:14:03.064Z,1018
2019-03-18T09:15:04.019Z,1018.1
2019-03-18T09:16:03.744Z,1018.2
2019-03-18T09:17:03.783Z,1018.2
2019-03-18T09:18:03.876Z,1018.2
2019-03-18T09:19:09.809Z,1018.2
2019-03-18T09:20:03.726Z,1018.2
2019-03-18T09:21:03.816Z,1018.2
2019-03-18T09:22:03.982Z,1018.2
2019-03-18T09:23:03.474Z,1018.2
2019-03-18T09:24:03.176Z,1018.2
2019-03-18T09:25:03.799Z,1018.3
2019-03-18T09:26:03.603Z,1018.2
2019-03-18T09:27:03.633Z,1018.2
2019-03-18T09:28:03.491Z,1018.1
2019-03-18T09:29:03.473Z,1018.2
2019-03-18T09:30:03.178Z,1018.2
2019-03-18T09:31:03.318Z,1018
2019-03-18T09:32:03.437Z,1018
2019-03-18T09:33:03.504Z,1018.1
2019-03-18T09:34:03.462Z,1018
2019-03-18T09:35:03.335Z,1018.1
2019-03-18T09:36:03.235Z,1018.1
2019-03-18T09:37:03.353Z,1018.1
2019-03-18T09:38:03.027Z,1018.2
2019-03-18T09:39:02.960Z,1018
2019-03-18T09:40:04.048Z,1018.1
2019-03-18T09:41:04.073Z,1018.1
2019-03-18T09:42:03.918Z,1018.1
2019-03-18T09:43:03.800Z,1018.2
2019-03-18T09:44:02.699Z,1018.2
2019-03-18T09:45:04.029Z,1018.1
2019-03-18T09:46:04.026Z,1018.1
2019-03-18T09:47:03.795Z,1018.1
2019-03-18T09:48:03.059Z,1018.1
2019-03-18T09:49:03.368Z,1018.1
2019-03-18T09:50:03.498Z,1018.2
2019-03-18T09:51:03.552Z,1018.2
2019-03-18T09:52:03.184Z,1018.1
2019-03-18T09:53:03.651Z,1018.1
2019-03-18T09:54:04.066Z,1018.1
2019-03-18T09:55:03.886Z,1018
2019-03-18T09:56:03.550Z,1018
2019-03-18T09:57:03.598Z,1018
2019-03-18T09:58:03.603Z,1018
2019-03-18T09:59:03.957Z,1018
2019-03-18T10:00:03.741Z,1018.1
2019-03-18T10:01:03.573Z,1018
2019-03-18T10:02:03.354Z,1018.2
2019-03-18T10:03:03.593Z,1018.2
2019-03-18T10:04:04.035Z,1018.2
2019-03-18T10:05:03.740Z,1018.3
2019-03-18T10:06:03.151Z,1018.2
2019-03-18T10:07:03.431Z,1018.2
2019-03-18T10:08:03.393Z,1018.2
2019-03-18T10:09:03.171Z,1018.2
2019-03-18T10:10:03.545Z,1018.2
2019-03-18T10:11:03.298Z,1018.2
2019-03-18T10:12:03.258Z,1018.3
2019-03-18T10:13:03.156Z,1018.3
2019-03-18T10:14:03.384Z,1018.2
2019-03-18T10:15:02.919Z,1018.3
2019-03-18T10:16:03.231Z,1018.1
2019-03-18T10:17:10.580Z,1018.1
2019-03-18T10:18:03.759Z,1018.1
2019-03-18T10:19:03.891Z,1018.2
2019-03-18T10:20:02.915Z,1018.1
2019-03-18T10:21:03.919Z,1018.1
2019-03-18T10:22:03.879Z,1018.2
2019-03-18T10:23:03.513Z,1018.2
2019-03-18T10:24:03.726Z,1018.1
2019-03-18T10:25:04.882Z,1018.1
2019-03-18T10:26:03.643Z,1018
2019-03-18T10:27:04.149Z,1018.1
2019-03-18T10:28:03.312Z,1018.1
2019-03-18T10:29:03.826Z,1018.1
2019-03-18T10:30:03.848Z,1018
2019-03-18T10:31:03.865Z,1018.1
2019-03-18T10:32:03.523Z,1018
2019-03-18T10:33:03.347Z,1018
2019-03-18T10:34:03.689Z,1017.9
2019-03-18T10:35:03.335Z,1017.9
2019-03-18T10:36:03.569Z,1018
2019-03-18T10:37:03.231Z,1018
2019-03-18T10:38:03.581Z,1017.9
2019-03-18T10:39:03.337Z,1018
2019-03-18T10:40:03.273Z,1017.9
2019-03-18T10:41:03.210Z,1017.8
2019-03-18T10:42:03.058Z,1017.9
2019-03-18T10:43:03.258Z,1017.8
2019-03-18T10:44:03.037Z,1017.8
2019-03-18T10:45:02.910Z,1017.8
2019-03-18T10:46:03.261Z,1017.7
2019-03-18T10:47:03.338Z,1017.7
2019-03-18T10:48:03.508Z,1017.7
2019-03-18T10:49:03.771Z,1017.6
2019-03-18T10:50:03.808Z,1017.6
2019-03-18T10:51:03.773Z,1017.7
2019-03-18T10:52:03.977Z,1017.6
2019-03-18T10:53:04.140Z,1017.6
2019-03-18T10:54:04.102Z,1017.5
2019-03-18T10:55:03.951Z,1017.6
2019-03-18T10:56:08.756Z,1017.5
2019-03-18T10:57:03.532Z,1017.4
2019-03-18T10:58:03.615Z,1017.3
2019-03-18T10:59:03.531Z,1017.4
2019-03-18T11:00:03.664Z,1017.5
2019-03-18T11:01:03.367Z,1017.5
2019-03-18T11:02:03.516Z,1017.5
2019-03-18T11:03:03.073Z,1017.4
2019-03-18T11:04:03.004Z,1017.5
2019-03-18T11:05:03.524Z,1017.6
2019-03-18T11:06:03.356Z,1017.4
2019-03-18T11:07:03.178Z,1017.5
2019-03-18T11:08:03.434Z,1017.6
2019-03-18T11:09:03.030Z,1017.8
2019-03-18T11:10:03.532Z,1018.1
2019-03-18T11:11:03.151Z,1018.2
2019-03-18T11:12:03.413Z,1018.4
2019-03-18T11:13:02.557Z,1018.5
2019-03-18T11:14:03.022Z,1018.8
2019-03-18T11:15:02.858Z,1018.7
2019-03-18T11:16:03.707Z,1018.8
2019-03-18T11:17:03.101Z,1018.9
2019-03-18T11:18:05.259Z,1018.9
2019-03-18T11:19:04.186Z,1019
2019-03-18T11:20:03.718Z,1019.1
2019-03-18T11:21:03.915Z,1018.9
2019-03-18T11:22:03.703Z,1018.9
2019-03-18T11:23:03.817Z,1019
2019-03-18T11:24:03.475Z,1018.9
2019-03-18T11:25:03.717Z,1018.9
2019-03-18T11:26:03.710Z,1019
2019-03-18T11:27:03.004Z,1018.9
2019-03-18T11:28:03.417Z,1018.7
2019-03-18T11:29:06.311Z,1018.8
2019-03-18T11:30:03.299Z,1018.7
2019-03-18T11:31:03.283Z,1018.7
2019-03-18T11:32:03.438Z,1018.6
2019-03-18T11:33:03.182Z,1018.6
2019-03-18T11:34:03.615Z,1018.6
2019-03-18T11:35:03.344Z,1018.7
2019-03-18T11:36:03.576Z,1018.5
2019-03-18T11:37:03.074Z,1018.5
2019-03-18T11:38:03.277Z,1018.4
2019-03-18T11:39:03.271Z,1018.6
2019-03-18T11:40:03.332Z,1018.5
2019-03-18T11:41:03.192Z,1018.5
2019-03-18T11:42:03.266Z,1018.4
2019-03-18T11:43:03.239Z,1018.4
2019-03-18T11:44:03.787Z,1018.4
2019-03-18T11:45:03.255Z,1018.3
2019-03-18T11:46:03.579Z,1018.2
2019-03-18T11:47:03.823Z,1018.2
2019-03-18T11:48:03.880Z,1018.2
2019-03-18T11:49:03.860Z,1018.2
2019-03-18T11:50:12.277Z,1018.3
2019-03-18T11:51:03.492Z,1018.2
2019-03-18T11:52:04.001Z,1018.2
2019-03-18T11:53:15.272Z,1018.3
2019-03-18T11:54:03.628Z,1018.3
2019-03-18T11:55:03.879Z,1018.3
2019-03-18T11:56:03.046Z,1018.3
2019-03-18T11:57:03.328Z,1018.1
2019-03-18T11:58:03.689Z,1018.3
2019-03-18T11:59:03.577Z,1018
2019-03-18T12:00:03.480Z,1018.2
2019-03-18T12:01:03.238Z,1018.1
2019-03-18T12:02:03.598Z,1018.3
2019-03-18T12:03:03.596Z,1018.3
2019-03-18T12:04:03.626Z,1018.3
2019-03-18T12:05:03.224Z,1018.3
2019-03-18T12:06:03.515Z,1018.3
2019-03-18T12:07:03.306Z,1018.4
2019-03-18T12:08:03.344Z,1018.2
2019-03-18T12:09:03.446Z,1018.4
2019-03-18T12:10:03.181Z,1018.2
2019-03-18T12:11:03.150Z,1018.3
2019-03-18T12:12:03.060Z,1018.2
2019-03-18T12:13:03.057Z,1018.1
2019-03-18T12:14:03.193Z,1018.1
2019-03-18T12:15:03.583Z,1018.1
2019-03-18T12:16:02.974Z,1018
2019-03-18T12:17:02.792Z,1017.9
2019-03-18T12:18:03.831Z,1017.9
2019-03-18T12:19:04.086Z,1018
2019-03-18T12:20:03.224Z,1018
2019-03-18T12:21:03.623Z,1017.9
2019-03-18T12:22:05.053Z,1017.9
2019-03-18T12:23:03.420Z,1017.9
2019-03-18T12:24:03.789Z,1017.9
2019-03-18T12:25:03.397Z,1017.9
2019-03-18T12:26:03.659Z,1017.9
2019-03-18T12:27:03.775Z,1018
2019-03-18T12:28:06.000Z,1018
2019-03-18T12:29:03.389Z,1018.1
2019-03-18T12:30:03.957Z,1018.1
2019-03-18T12:31:03.927Z,1018
2019-03-18T12:32:03.630Z,1018.1
2019-03-18T12:33:03.256Z,1018
2019-03-18T12:34:03.466Z,1018
2019-03-18T12:35:03.707Z,1018
2019-03-18T12:36:03.669Z,1018